KLM2634 LFPO-LFLL
Flight info
| Callsign | KLM2634 |
|---|---|
| Flight time | N/A |
| Altitude | 25000 |
| Route | OKASI DCT OKEKO DCT OKEPI DCT MOU/N0351F190 A3 FEDZI |
| Aircraft | B738/M-SDE2E3FGHIRWXY/LB1 |
Departure
| Time | 2026-04-30 14:54 |
|---|---|
| Airport | Paris-Orly Airport (LFPO) |
Arrival
| Time | N/A |
|---|---|
| Airport | Lyon Saint-Exupéry Airport (LFLL) |
| Time | Latitude | Longitude | Altitude | Speed | Heading |
|---|---|---|---|---|---|
| 2026-04-30 14:24 | 48.72824 | 2.35693 | 299 ft | 0 kts | 28° |
| 2026-04-30 14:43 | 48.72811 | 2.35683 | 299 ft | 4 kts | 27° |
| 2026-04-30 14:44 | 48.72788 | 2.35663 | 299 ft | 4 kts | 40° |
| 2026-04-30 14:44 | 48.72771 | 2.35633 | 299 ft | 4 kts | 64° |
| 2026-04-30 14:44 | 48.72765 | 2.35613 | 299 ft | 0 kts | 74° |
| 2026-04-30 14:47 | 48.72765 | 2.35614 | 299 ft | 0 kts | 74° |
| 2026-04-30 14:47 | 48.72767 | 2.35624 | 299 ft | 6 kts | 74° |
| 2026-04-30 14:47 | 48.72755 | 2.35703 | 299 ft | 8 kts | 186° |
| 2026-04-30 14:48 | 48.72744 | 2.35695 | 299 ft | 0 kts | 226° |
| 2026-04-30 14:48 | 48.72743 | 2.35693 | 299 ft | 2 kts | 226° |
| 2026-04-30 14:49 | 48.72704 | 2.35651 | 299 ft | 8 kts | 202° |
| 2026-04-30 14:49 | 48.72666 | 2.35642 | 299 ft | 3 kts | 179° |
| 2026-04-30 14:49 | 48.72657 | 2.35642 | 299 ft | 2 kts | 175° |
| 2026-04-30 14:49 | 48.72612 | 2.35662 | 299 ft | 8 kts | 163° |
| 2026-04-30 14:50 | 48.72555 | 2.35689 | 299 ft | 3 kts | 163° |
| 2026-04-30 14:50 | 48.72498 | 2.35712 | 299 ft | 12 kts | 166° |
| 2026-04-30 14:51 | 48.72449 | 2.35612 | 299 ft | 10 kts | 224° |
| 2026-04-30 14:51 | 48.72370 | 2.35629 | 299 ft | 10 kts | 186° |
| 2026-04-30 14:51 | 48.72261 | 2.35597 | 299 ft | 11 kts | 179° |
| 2026-04-30 14:52 | 48.72197 | 2.35613 | 299 ft | 10 kts | 166° |
| 2026-04-30 14:52 | 48.72062 | 2.35697 | 299 ft | 9 kts | 136° |
| 2026-04-30 14:52 | 48.72031 | 2.35759 | 299 ft | 7 kts | 124° |
| 2026-04-30 14:53 | 48.71985 | 2.35867 | 299 ft | 5 kts | 123° |
| 2026-04-30 14:53 | 48.71965 | 2.35920 | 299 ft | 8 kts | 105° |
| 2026-04-30 14:54 | 48.72109 | 2.36769 | 299 ft | 97 kts | 75° |
| 2026-04-30 14:54 | 48.72621 | 2.39492 | 924 ft | 149 kts | 76° |
| 2026-04-30 14:55 | 48.73202 | 2.42620 | 2298 ft | 156 kts | 77° |
| 2026-04-30 14:55 | 48.73505 | 2.44291 | 2746 ft | 176 kts | 77° |
| 2026-04-30 14:55 | 48.74179 | 2.48376 | 3456 ft | 222 kts | 82° |
| 2026-04-30 14:56 | 48.74358 | 2.53380 | 4615 ft | 251 kts | 92° |
| 2026-04-30 14:56 | 48.73289 | 2.58408 | 6209 ft | 259 kts | 122° |
| 2026-04-30 14:57 | 48.72088 | 2.60450 | 7017 ft | 263 kts | 146° |
| 2026-04-30 14:57 | 48.68466 | 2.61619 | 8558 ft | 275 kts | 172° |
| 2026-04-30 14:58 | 48.64618 | 2.62101 | 10093 ft | 284 kts | 188° |
| 2026-04-30 14:58 | 48.62719 | 2.61166 | 10843 ft | 292 kts | 200° |
| 2026-04-30 14:58 | 48.58783 | 2.58535 | 11554 ft | 329 kts | 203° |
| 2026-04-30 14:59 | 48.54536 | 2.55326 | 12687 ft | 348 kts | 204° |
| 2026-04-30 15:00 | 48.47878 | 2.50684 | 14927 ft | 353 kts | 188° |
| 2026-04-30 15:00 | 48.43103 | 2.51552 | 16408 ft | 350 kts | 157° |
| 2026-04-30 15:01 | 48.38652 | 2.54510 | 17810 ft | 355 kts | 151° |
| 2026-04-30 15:01 | 48.37162 | 2.55648 | 18275 ft | 357 kts | 150° |
| 2026-04-30 15:01 | 48.31941 | 2.59668 | 19774 ft | 365 kts | 150° |
| 2026-04-30 15:02 | 48.29670 | 2.61412 | 20402 ft | 368 kts | 150° |
| 2026-04-30 15:02 | 48.27378 | 2.63178 | 20989 ft | 372 kts | 150° |
| 2026-04-30 15:03 | 48.20381 | 2.68562 | 22675 ft | 382 kts | 150° |
| 2026-04-30 15:03 | 48.15616 | 2.72210 | 23742 ft | 388 kts | 150° |
| 2026-04-30 15:04 | 48.10815 | 2.75877 | 24811 ft | 391 kts | 150° |
| 2026-04-30 15:04 | 48.03475 | 2.81032 | 26702 ft | 388 kts | 155° |
| 2026-04-30 15:05 | 47.96013 | 2.85670 | 28281 ft | 388 kts | 155° |
| 2026-04-30 15:06 | 47.91037 | 2.88791 | 29071 ft | 390 kts | 155° |
| 2026-04-30 15:07 | 47.81070 | 2.95092 | 29111 ft | 387 kts | 155° |
| 2026-04-30 15:08 | 47.71165 | 3.01354 | 29110 ft | 387 kts | 155° |
| 2026-04-30 15:09 | 47.59604 | 3.08598 | 29108 ft | 387 kts | 155° |
| 2026-04-30 15:10 | 47.49673 | 3.14785 | 29114 ft | 388 kts | 155° |
| 2026-04-30 15:11 | 47.34755 | 3.24053 | 29112 ft | 388 kts | 155° |
| 2026-04-30 15:13 | 47.22288 | 3.31724 | 29112 ft | 389 kts | 156° |
| 2026-04-30 15:14 | 47.04949 | 3.42349 | 29088 ft | 375 kts | 156° |
| 2026-04-30 15:16 | 46.93284 | 3.49504 | 27565 ft | 357 kts | 156° |
| 2026-04-30 15:17 | 46.84212 | 3.55023 | 26132 ft | 350 kts | 156° |
| 2026-04-30 15:18 | 46.73146 | 3.61720 | 24380 ft | 341 kts | 156° |
| 2026-04-30 15:19 | 46.66565 | 3.65491 | 23340 ft | 337 kts | 159° |